| time (UTC) | temp F | wind direction | speed knots | gust knots | rain 1hr in | rain 24hr in | rain mn in | humidity % | barometer mb |
| 20260505124813 | 53 | 330 | 0.0 | 0.0 | 0.00 | 0.00 | 0.00 | 80 | 1017.5 |
| 20260505123312 | 51 | 330 | 0.0 | 0.0 | 0.00 | 0.00 | 0.00 | 81 | 1017.5 |
| 20260505121814 | 50 | 330 | 0.0 | 0.0 | 0.00 | 0.00 | 0.00 | 80 | 1017.5 |
| 20260505120313 | 49 | 330 | 0.0 | 0.0 | 0.00 | 0.00 | 0.00 | 79 | 1017.3 |
| 20260505114816 | 49 | 330 | 0.0 | 0.0 | 0.00 | 0.00 | 0.00 | 78 | 1017.2 |
| 20260505113335 | 49 | 330 | 0.0 | 0.0 | 0.00 | 0.00 | 0.00 | 77 | 1016.9 |
| 20260505111816 | 49 | 330 | 0.0 | 0.0 | 0.00 | 0.00 | 0.00 | 76 | 1016.9 |
| 20260505110315 | 50 | 330 | 0.0 | 0.0 | 0.00 | 0.00 | 0.00 | 74 | 1016.9 |
| 20260505101815 | 52 | 330 | 0.0 | 0.0 | 0.00 | 0.00 | 0.00 | 69 | 1016.8 |
| 20260505100340 | 53 | 330 | 0.0 | 0.0 | 0.00 | 0.00 | 0.00 | 66 | 1016.8 |
| 20260505094818 | 53 | 330 | 0.0 | 0.0 | 0.00 | 0.00 | 0.00 | 65 | 1016.7 |
| 20260505093321 | 55 | 330 | 0.0 | 0.0 | 0.00 | 0.00 | 0.00 | 65 | 1016.7 |
| 20260505091819 | 55 | 330 | 0.0 | 0.0 | 0.00 | 0.00 | 0.00 | 60 | 1016.7 |
| 20260505090322 | 56 | 330 | 0.0 | 0.9 | 0.00 | 0.00 | 0.00 | 59 | 1016.7 |
| 20260505084820 | 56 | 330 | 0.0 | 1.7 | 0.00 | 0.00 | 0.00 | 58 | 1016.6 |
| 20260505083324 | 56 | 330 | 0.0 | 0.9 | 0.00 | 0.00 | 0.00 | 57 | 1016.3 |
| 20260505081844 | 56 | 330 | 0.0 | 0.9 | 0.00 | 0.00 | 0.00 | 57 | 1016.3 |
| 20260505080322 | 56 | 330 | 0.0 | 1.7 | 0.00 | 0.00 | 0.00 | 58 | 1016.2 |
| 20260505074823 | 56 | 330 | 0.0 | 0.9 | 0.00 | 0.00 | 0.00 | 59 | 1016.1 |
| 20260505073322 | 56 | 330 | 0.0 | 1.7 | 0.00 | 0.00 | 0.00 | 59 | 1016.1 |
| 20260505071824 | 56 | 330 | 0.9 | 2.6 | 0.00 | 0.00 | 0.00 | 58 | 1016.3 |
| 20260505070324 | 56 | 67 | 0.0 | 0.9 | 0.00 | 0.00 | 0.00 | 63 | 1016.3 |
| 20260505064826 | 56 | 67 | 0.0 | 0.9 | 0.00 | 0.00 | 0.00 | 62 | 1016.4 |
| 20260505063325 | 56 | 67 | 0.0 | 0.9 | 0.00 | 0.00 | 0.00 | 62 | 1016.6 |
| 20260505061827 | 56 | 67 | 0.0 | 0.9 | 0.00 | 0.00 | 0.00 | 63 | 1016.7 |
| 20260505060326 | 56 | 67 | 0.0 | 0.9 | 0.00 | 0.00 | 0.00 | 66 | 1016.7 |
| 20260505054825 | 56 | 67 | 0.0 | 0.9 | 0.00 | 0.00 | 0.00 | 65 | 1016.8 |
| 20260505053328 | 56 | 67 | 0.0 | 0.0 | 0.00 | 0.00 | 0.00 | 66 | 1016.7 |
| 20260505051826 | 56 | 67 | 0.0 | 1.7 | 0.00 | 0.00 | 0.00 | 66 | 1016.7 |
| 20260505050331 | 56 | 67 | 0.0 | 0.0 | 0.00 | 0.00 | 0.00 | 65 | 1016.9 |
| 20260505040333 | 55 | 67 | 0.0 | 0.9 | 0.00 | 0.00 | 0.00 | 68 | 1016.9 |
| 20260505034830 | 55 | 67 | 0.0 | 0.0 | 0.00 | 0.00 | 0.00 | 69 | 1017.0 |
| 20260505033312 | 55 | 67 | 0.0 | 0.0 | 0.00 | 0.00 | 0.00 | 69 | 1017.1 |
| 20260505031830 | 56 | 67 | 0.0 | 0.0 | 0.00 | 0.00 | 0.00 | 68 | 1017.1 |
| 20260505030314 | 56 | 67 | 0.0 | 0.0 | 0.00 | 0.00 | 0.00 | 65 | 1017.1 |
| 20260505024833 | 57 | 67 | 0.0 | 0.0 | 0.00 | 0.00 | 0.00 | 64 | 1017.1 |
| 20260505023311 | 58 | 67 | 0.0 | 0.0 | 0.00 | 0.00 | 0.00 | 63 | 1017.1 |
| 20260505021813 | 59 | 67 | 0.0 | 0.0 | 0.00 | 0.00 | 0.00 | 60 | 1017.1 |
| 20260505020313 | 60 | 67 | 0.0 | 0.0 | 0.00 | 0.00 | 0.00 | 58 | 1016.9 |
| 20260505014816 | 60 | 67 | 0.0 | 0.0 | 0.00 | 0.00 | 0.00 | 55 | 1016.8 |
| 20260505013313 | 61 | 67 | 0.0 | 0.9 | 0.00 | 0.00 | 0.00 | 54 | 1016.7 |
| 20260505011815 | 61 | 67 | 0.0 | 0.0 | 0.00 | 0.00 | 0.00 | 54 | 1016.5 |
| 20260505010315 | 62 | 67 | 0.0 | 0.0 | 0.00 | 0.00 | 0.00 | 53 | 1016.4 |
| 20260505004817 | 62 | 67 | 0.0 | 0.0 | 0.00 | 0.00 | 0.00 | 52 | 1016.3 |
| 20260505003316 | 63 | 67 | 0.0 | 0.0 | 0.00 | 0.00 | 0.00 | 52 | 1016.2 |
| 20260505001819 | 64 | 67 | 0.0 | 0.9 | 0.00 | 0.00 | 0.00 | 51 | 1016.1 |
| 20260505000318 | 65 | 67 | 0.0 | 0.9 | 0.00 | 0.00 | 0.00 | 50 | 1016.0 |
| 20260504234816 | 65 | 67 | 0.0 | 1.7 | 0.00 | 0.00 | 0.00 | 50 | 1015.9 |
| 20260504233320 | 66 | 67 | 0.0 | 1.7 | 0.00 | 0.00 | 0.00 | 50 | 1015.8 |
| 20260504231817 | 66 | 67 | 0.0 | 0.9 | 0.00 | 0.00 | 0.00 | 49 | 1015.8 |
| 20260504230320 | 67 | 71 | 0.0 | 1.7 | 0.00 | 0.00 | 0.00 | 49 | 1015.5 |
| 20260504224817 | 68 | 85 | 0.0 | 1.7 | 0.00 | 0.00 | 0.00 | 47 | 1015.4 |
| 20260504223321 | 68 | 85 | 0.0 | 1.7 | 0.00 | 0.00 | 0.00 | 44 | 1015.5 |
| 20260504221841 | 69 | 85 | 0.9 | 1.7 | 0.00 | 0.00 | 0.00 | 43 | 1015.4 |
| 20260504220324 | 69 | 85 | 0.0 | 1.7 | 0.00 | 0.00 | 0.00 | 43 | 1015.5 |
| 20260504214821 | 70 | 80 | 0.0 | 2.6 | 0.00 | 0.00 | 0.00 | 43 | 1015.4 |
| 20260504213324 | 70 | 109 | 0.9 | 1.7 | 0.00 | 0.00 | 0.00 | 42 | 1015.4 |
| 20260504211821 | 70 | 109 | 0.0 | 2.6 | 0.00 | 0.00 | 0.00 | 42 | 1015.4 |
| 20260504210319 | 71 | 109 | 1.7 | 2.6 | 0.00 | 0.00 | 0.00 | 39 | 1015.4 |
| 20260504204821 | 70 | 166 | 0.0 | 1.7 | 0.00 | 0.00 | 0.00 | 38 | 1015.5 |
| 20260504203320 | 70 | 157 | 0.0 | 1.7 | 0.00 | 0.00 | 0.00 | 36 | 1015.7 |
| 20260504201822 | 70 | 157 | 0.9 | 1.7 | 0.00 | 0.00 | 0.00 | 37 | 1015.9 |
| 20260504200320 | 70 | 159 | 0.9 | 1.7 | 0.00 | 0.00 | 0.00 | 36 | 1015.9 |
| 20260504194822 | 70 | 111 | 0.9 | 1.7 | 0.00 | 0.00 | 0.00 | 37 | 1016.2 |
| 20260504193320 | 71 | 111 | 0.0 | 2.6 | 0.00 | 0.00 | 0.00 | 36 | 1016.3 |
| 20260504191821 | 71 | 111 | 0.0 | 1.7 | 0.00 | 0.00 | 0.00 | 36 | 1016.4 |
| 20260504190321 | 71 | 142 | 0.9 | 2.6 | 0.00 | 0.00 | 0.00 | 38 | 1016.5 |
| 20260504184823 | 71 | 145 | 0.9 | 2.6 | 0.00 | 0.00 | 0.00 | 36 | 1016.7 |
| 20260504183322 | 72 | 235 | 0.0 | 1.7 | 0.00 | 0.00 | 0.00 | 31 | 1016.9 |
| 20260504181839 | 71 | 310 | 0.0 | 0.9 | 0.00 | 0.00 | 0.00 | 31 | 1016.9 |
| 20260504180322 | 71 | 308 | 0.0 | 1.7 | 0.00 | 0.00 | 0.00 | 32 | 1017.1 |
| 20260504174819 | 71 | 92 | 0.0 | 2.6 | 0.00 | 0.00 | 0.00 | 30 | 1017.3 |
| 20260504173323 | 71 | 85 | 0.0 | 0.9 | 0.00 | 0.00 | 0.00 | 31 | 1017.4 |
| 20260504171821 | 72 | 94 | 0.9 | 2.6 | 0.00 | 0.00 | 0.00 | 34 | 1017.5 |
| 20260504170323 | 72 | 308 | 0.0 | 1.7 | 0.00 | 0.00 | 0.00 | 32 | 1017.5 |
| 20260504160320 | 64 | 10 | 0.9 | 1.7 | 0.00 | 0.00 | 0.00 | 44 | 1018.5 |
| 20260504150319 | 60 | 40 | 0.0 | 1.7 | 0.00 | 0.00 | 0.00 | 47 | 1019.0 |
| 20260504140319 | 55 | 81 | 0.9 | 1.7 | 0.00 | 0.00 | 0.00 | 61 | 1019.2 |
| 20260504130320 | 47 | 80 | 0.0 | 0.0 | 0.00 | 0.00 | 0.00 | 81 | 1019.1 |